Time;durP1;ratioP1;P1;durP2;ratioP2;P2;SDS_P1;SDS_P2;PMS_P1;PMS_P2;Temp;Humidity;BMP_temperature;BMP_pressure;BME280_temperature;BME280_humidity;BME280_pressure;Samples;Min_cycle;Max_cycle;Signal;HPM_P1;HPM_P2
2023/02/12 00:00:39;;;;;;;14.60;11.25;;;9.10;99.90;;;;;;5059691;28;20032;-43
2023/02/12 00:03:25;;;;;;;15.07;11.73;;;9.10;99.90;;;;;;5060144;28;20175;-43
2023/02/12 00:05:50;;;;;;;18.10;12.18;;;9.20;99.90;;;;;;5059369;28;20036;-43
2023/02/12 00:08:16;;;;;;;13.70;10.80;;;9.10;99.90;;;;;;5059830;28;20025;-43
2023/02/12 00:10:44;;;;;;;17.80;13.02;;;9.20;99.90;;;;;;5059327;28;20029;-43
2023/02/12 00:13:11;;;;;;;17.10;13.52;;;9.10;99.90;;;;;;5059546;28;20067;-44
2023/02/12 00:15:41;;;;;;;18.63;13.90;;;9.10;99.90;;;;;;5058830;28;20035;-44
2023/02/12 00:18:07;;;;;;;17.33;13.43;;;9.10;99.90;;;;;;5059618;28;20428;-43
2023/02/12 00:20:33;;;;;;;17.25;13.50;;;9.10;99.90;;;;;;5059479;28;20043;-43
2023/02/12 00:22:58;;;;;;;16.08;12.80;;;9.10;99.90;;;;;;5060060;28;20456;-43
2023/02/12 00:25:24;;;;;;;17.15;13.23;;;9.10;99.90;;;;;;5060159;28;20031;-44
2023/02/12 00:27:49;;;;;;;17.17;13.63;;;9.00;99.90;;;;;;5057902;28;20029;-42
2023/02/12 00:30:15;;;;;;;20.05;14.52;;;9.10;99.90;;;;;;5059828;28;20444;-43
2023/02/12 00:32:45;;;;;;;19.33;13.63;;;9.00;99.90;;;;;;5059582;28;20016;-43
2023/02/12 00:35:11;;;;;;;17.30;14.35;;;8.90;99.90;;;;;;5059093;28;20040;-44
2023/02/12 00:37:37;;;;;;;22.80;15.73;;;8.90;99.90;;;;;;5058942;28;20017;-43
2023/02/12 00:40:03;;;;;;;20.60;16.25;;;8.90;99.90;;;;;;5058636;28;20036;-43
2023/02/12 00:42:29;;;;;;;22.33;16.42;;;8.80;99.90;;;;;;5058438;28;20557;-43
2023/02/12 00:44:54;;;;;;;19.67;14.45;;;8.70;99.90;;;;;;5058931;28;20028;-43
2023/02/12 00:47:20;;;;;;;16.95;14.38;;;8.80;99.90;;;;;;5058105;28;20021;-42
2023/02/12 00:49:45;;;;;;;17.45;13.85;;;8.70;99.90;;;;;;5058121;28;20058;-43
2023/02/12 00:52:11;;;;;;;17.10;13.75;;;8.70;99.90;;;;;;5058365;28;20116;-42
2023/02/12 00:54:36;;;;;;;18.13;14.15;;;8.70;99.90;;;;;;5058853;28;20036;-43
2023/02/12 00:57:02;;;;;;;17.75;14.00;;;8.70;99.90;;;;;;5058184;28;20032;-44
2023/02/12 00:59:28;;;;;;;16.73;13.57;;;8.60;99.90;;;;;;5059505;28;20036;-44
2023/02/12 01:01:55;;;;;;;19.40;14.02;;;8.60;99.90;;;;;;5058352;28;20131;-43
2023/02/12 01:04:21;;;;;;;18.20;13.48;;;8.50;99.90;;;;;;5058380;28;20035;-43
2023/02/12 01:06:47;;;;;;;20.17;14.52;;;8.50;99.90;;;;;;5058553;28;20020;-43
2023/02/12 01:09:13;;;;;;;20.85;14.65;;;8.50;99.90;;;;;;5058291;28;20032;-42
2023/02/12 01:11:39;;;;;;;19.75;14.88;;;8.50;99.90;;;;;;5057353;28;20029;-44
2023/02/12 01:14:05;;;;;;;17.60;13.73;;;8.40;99.90;;;;;;5058102;28;20079;-44
2023/02/12 01:16:32;;;;;;;18.23;14.13;;;8.40;99.90;;;;;;5058532;28;20749;-43
2023/02/12 01:18:58;;;;;;;18.15;14.00;;;8.40;99.90;;;;;;5057699;28;20025;-43
2023/02/12 01:21:26;;;;;;;17.92;14.40;;;8.40;99.90;;;;;;5059623;28;20452;-43
2023/02/12 01:23:52;;;;;;;17.77;14.20;;;8.40;99.90;;;;;;5057946;28;20078;-44
2023/02/12 01:26:19;;;;;;;19.10;14.45;;;8.40;99.90;;;;;;5059491;28;20032;-44
2023/02/12 01:28:50;;;;;;;17.75;14.30;;;8.30;99.90;;;;;;5058822;28;20029;-44
2023/02/12 01:31:22;;;;;;;16.70;13.77;;;8.30;99.90;;;;;;5059145;28;20039;-44
2023/02/12 01:33:49;;;;;;;18.98;14.60;;;8.30;99.90;;;;;;5059240;28;20029;-44
2023/02/12 01:36:15;;;;;;;19.13;14.77;;;8.30;99.90;;;;;;5059110;28;20024;-44
2023/02/12 01:38:49;;;;;;;17.60;14.85;;;8.20;99.90;;;;;;5058630;28;20031;-42
2023/02/12 01:41:19;;;;;;;20.67;15.70;;;8.20;99.90;;;;;;5059454;28;20115;-43
2023/02/12 01:43:45;;;;;;;19.38;15.07;;;8.20;99.90;;;;;;5058757;28;20028;-42
2023/02/12 01:46:14;;;;;;;21.70;16.75;;;8.20;99.90;;;;;;5058296;28;20075;-43
2023/02/12 01:48:44;;;;;;;21.23;15.30;;;8.10;99.90;;;;;;5059326;28;20017;-43
2023/02/12 01:51:13;;;;;;;22.30;15.75;;;8.10;99.90;;;;;;5059022;28;20033;-43
2023/02/12 01:53:44;;;;;;;21.42;15.63;;;8.20;99.90;;;;;;5057772;28;20017;-44
2023/02/12 01:56:10;;;;;;;20.75;15.10;;;8.20;99.90;;;;;;5059116;28;20374;-44
2023/02/12 01:58:44;;;;;;;20.33;15.57;;;8.20;99.90;;;;;;5059360;28;20482;-43
2023/02/12 02:01:18;;;;;;;22.17;16.25;;;8.20;99.90;;;;;;5050398;28;20459;-43
2023/02/12 02:03:47;;;;;;;19.77;15.82;;;8.20;99.90;;;;;;5062486;28;20549;-43
2023/02/12 02:06:28;;;;;;;20.73;15.98;;;8.20;99.90;;;;;;5061241;28;20573;-43
2023/02/12 02:08:55;;;;;;;22.45;15.85;;;8.20;99.90;;;;;;5061760;28;20033;-43
2023/02/12 02:17:14;;;;;;;22.38;16.00;;;8.20;99.90;;;;;;5052312;28;20071;-43
2023/02/12 02:20:00;;;;;;;20.98;15.88;;;8.20;99.90;;;;;;5061764;28;20148;-44
2023/02/12 02:22:56;;;;;;;22.48;16.50;;;8.10;99.90;;;;;;5062680;28;20120;-44
2023/02/12 02:25:53;;;;;;;20.40;16.02;;;8.20;99.90;;;;;;5062567;28;20048;-45
2023/02/12 02:29:03;;;;;;;21.17;15.27;;;8.10;99.90;;;;;;5033930;28;20147;-44
2023/02/12 02:31:49;;;;;;;23.55;16.63;;;8.10;99.90;;;;;;5041335;28;20632;-44
2023/02/12 02:34:29;;;;;;;21.65;16.23;;;8.10;99.90;;;;;;5061864;28;20033;-43
2023/02/12 02:37:15;;;;;;;24.63;16.02;;;8.10;99.90;;;;;;5058169;28;20654;-43
2023/02/12 02:39:56;;;;;;;22.95;16.38;;;8.00;99.90;;;;;;5062542;28;20032;-43
2023/02/12 02:42:37;;;;;;;22.48;15.00;;;8.00;99.90;;;;;;5061597;28;20211;-43
2023/02/12 02:45:11;;;;;;;20.95;16.52;;;7.90;99.90;;;;;;5060938;28;20028;-43
2023/02/12 02:48:00;;;;;;;23.73;16.40;;;7.90;99.90;;;;;;5061743;28;20034;-43
2023/02/12 02:50:29;;;;;;;21.92;16.52;;;7.90;99.90;;;;;;5061368;28;20484;-42
2023/02/12 02:53:08;;;;;;;22.40;16.60;;;7.90;99.90;;;;;;5051111;28;20056;-43
2023/02/12 02:55:42;;;;;;;22.60;16.70;;;7.90;99.90;;;;;;5060496;28;20475;-42
2023/02/12 02:58:15;;;;;;;22.90;17.02;;;7.90;99.90;;;;;;5051239;28;20021;-42
2023/02/12 03:00:46;;;;;;;;;;;7.80;99.90;;;;;;5061234;28;20123;-43
2023/02/12 03:03:29;;;;;;;21.02;15.32;;;7.80;99.90;;;;;;5060425;28;19919;-43
2023/02/12 03:06:06;;;;;;;21.13;16.52;;;7.80;99.90;;;;;;5060483;28;20032;-43
2023/02/12 03:08:40;;;;;;;21.52;15.25;;;7.80;99.90;;;;;;5051211;28;20034;-44
2023/02/12 03:11:12;;;;;;;24.48;15.98;;;7.80;99.90;;;;;;5059226;28;20024;-44
2023/02/12 03:13:47;;;;;;;21.20;15.40;;;7.70;99.90;;;;;;5050532;28;20058;-44
2023/02/12 03:16:27;;;;;;;20.02;15.10;;;7.70;99.90;;;;;;5060295;28;20032;-43
2023/02/12 03:19:31;;;;;;;20.83;15.60;;;7.70;99.90;;;;;;5050549;28;20389;-44
2023/02/12 03:22:01;;;;;;;22.33;15.57;;;7.70;99.90;;;;;;4977692;28;20058;-43
2023/02/12 03:24:49;;;;;;;20.50;16.20;;;7.60;99.90;;;;;;5047146;28;20043;-44
2023/02/12 03:27:33;;;;;;;21.60;15.07;;;7.60;99.90;;;;;;5061427;28;20032;-44
2023/02/12 03:30:00;;;;;;;21.27;16.20;;;7.60;99.90;;;;;;5061147;28;20066;-43
2023/02/12 03:32:47;;;;;;;22.20;15.82;;;7.60;99.90;;;;;;5060206;28;20459;-44
2023/02/12 03:35:23;;;;;;;20.00;15.82;;;7.50;99.90;;;;;;5060911;28;20425;-43
2023/02/12 03:38:13;;;;;;;20.75;15.10;;;7.50;99.90;;;;;;5060023;28;20021;-43
2023/02/12 03:40:50;;;;;;;18.90;15.02;;;7.50;99.90;;;;;;5060867;28;20037;-44
2023/02/12 03:43:24;;;;;;;20.17;15.98;;;7.50;99.90;;;;;;5060296;28;20024;-42
2023/02/12 03:46:54;;;;;;;20.85;15.27;;;7.50;99.90;;;;;;5059502;28;20021;-43
2023/02/12 03:49:28;;;;;;;21.73;16.33;;;7.50;99.90;;;;;;4992634;28;20033;-44
2023/02/12 03:51:54;;;;;;;18.33;14.73;;;7.50;99.90;;;;;;5059666;28;20017;-43
2023/02/12 03:54:20;;;;;;;22.02;15.77;;;7.50;99.90;;;;;;5060099;28;20074;-43
2023/02/12 03:56:58;;;;;;;20.33;15.27;;;7.50;99.90;;;;;;5060687;28;20029;-43
2023/02/12 03:59:39;;;;;;;18.35;14.43;;;7.50;99.90;;;;;;5059571;28;20035;-43
2023/02/12 04:02:05;;;;;;;18.40;14.98;;;7.60;99.90;;;;;;5059841;28;20059;-43
2023/02/12 04:04:31;;;;;;;19.27;15.15;;;7.60;99.90;;;;;;5060044;28;20016;-42
2023/02/12 04:06:57;;;;;;;19.30;15.13;;;7.60;99.90;;;;;;5058974;28;20696;-43
2023/02/12 04:09:25;;;;;;;20.05;15.70;;;7.60;99.90;;;;;;5059773;28;20037;-43
2023/02/12 04:12:28;;;;;;;20.48;15.20;;;7.70;99.90;;;;;;5039481;28;20175;-43
2023/02/12 04:15:05;;;;;;;20.73;14.47;;;7.70;99.90;;;;;;5032684;28;20071;-42
2023/02/12 04:18:06;;;;;;;19.92;15.55;;;7.70;99.90;;;;;;5060770;28;20028;-43
2023/02/12 04:21:05;;;;;;;20.73;15.13;;;7.70;99.90;;;;;;5057464;28;20104;-43
2023/02/12 04:23:46;;;;;;;16.58;13.88;;;7.80;99.90;;;;;;5060127;28;20024;-43
2023/02/12 04:26:17;;;;;;;23.65;16.75;;;7.70;99.90;;;;;;5050484;28;20020;-43
2023/02/12 04:28:50;;;;;;;21.42;16.38;;;7.80;99.90;;;;;;5058665;28;20762;-43
2023/02/12 04:31:39;;;;;;;20.17;16.13;;;7.80;99.90;;;;;;5049127;28;20644;-43
2023/02/12 04:34:19;;;;;;;19.42;15.13;;;7.80;99.90;;;;;;5044310;28;20118;-44
2023/02/12 04:36:56;;;;;;;20.15;14.98;;;7.90;99.90;;;;;;5060344;28;20138;-43
2023/02/12 04:39:27;;;;;;;20.08;14.88;;;7.80;99.90;;;;;;5060055;28;20492;-44
2023/02/12 04:41:52;;;;;;;17.65;14.57;;;7.80;99.90;;;;;;5058297;28;20082;-44
2023/02/12 04:44:22;;;;;;;22.08;15.88;;;7.80;99.90;;;;;;5058955;28;20024;-43
2023/02/12 04:46:49;;;;;;;21.30;16.27;;;7.90;99.90;;;;;;5058968;28;20216;-44
2023/02/12 04:49:16;;;;;;;21.35;16.38;;;7.90;99.90;;;;;;5058129;28;20487;-44
2023/02/12 04:51:46;;;;;;;20.20;15.13;;;7.90;99.90;;;;;;5058949;28;20039;-41
2023/02/12 04:54:13;;;;;;;21.42;16.02;;;7.90;99.90;;;;;;5058484;28;20135;-43
2023/02/12 04:56:38;;;;;;;19.48;14.73;;;7.90;99.90;;;;;;5058241;28;20059;-44
2023/02/12 04:59:04;;;;;;;21.23;15.70;;;7.90;99.90;;;;;;5058939;28;20386;-44
2023/02/12 05:01:34;;;;;;;20.10;15.25;;;7.90;99.90;;;;;;5058785;28;20866;-44
2023/02/12 05:04:00;;;;;;;18.90;15.13;;;7.90;99.90;;;;;;5058738;28;20067;-43
2023/02/12 05:06:25;;;;;;;19.75;15.43;;;8.00;99.90;;;;;;5058968;28;20127;-42
2023/02/12 05:08:53;;;;;;;22.85;15.68;;;8.00;99.90;;;;;;5057978;28;20031;-42
2023/02/12 05:11:19;;;;;;;21.42;15.93;;;8.00;99.90;;;;;;5058882;28;20135;-43
2023/02/12 05:13:49;;;;;;;18.88;15.13;;;8.00;99.90;;;;;;5058960;28;20159;-42
2023/02/12 05:16:19;;;;;;;20.70;15.63;;;8.00;99.90;;;;;;5058482;28;20025;-42
2023/02/12 05:18:45;;;;;;;17.60;14.55;;;8.00;99.90;;;;;;5059133;28;20036;-43
2023/02/12 05:21:10;;;;;;;19.88;15.23;;;8.00;99.90;;;;;;5058894;28;20028;-44
2023/02/12 05:23:38;;;;;;;19.75;15.40;;;8.00;99.90;;;;;;5058448;28;20025;-44
2023/02/12 05:26:06;;;;;;;19.50;14.70;;;8.00;99.90;;;;;;5059065;28;20047;-42
2023/02/12 05:28:32;;;;;;;19.20;15.40;;;8.00;99.90;;;;;;5059402;28;20028;-43
2023/02/12 05:31:07;;;;;;;18.55;14.90;;;8.00;99.90;;;;;;5057971;28;20027;-43
2023/02/12 05:33:33;;;;;;;20.15;14.77;;;8.00;99.90;;;;;;5059934;28;20111;-43
2023/02/12 05:36:07;;;;;;;20.23;15.73;;;8.00;99.90;;;;;;5062204;28;20616;-43
2023/02/12 05:38:33;;;;;;;20.05;15.35;;;8.00;99.90;;;;;;5062258;28;20029;-43
2023/02/12 05:41:10;;;;;;;20.55;15.45;;;8.00;99.90;;;;;;5062425;28;20535;-42
2023/02/12 05:43:36;;;;;;;25.38;16.80;;;8.00;99.90;;;;;;5052043;28;20032;-44
2023/02/12 05:46:04;;;;;;;21.50;15.40;;;8.10;99.90;;;;;;5061963;28;20025;-43
2023/02/12 05:48:30;;;;;;;18.85;15.20;;;8.10;99.90;;;;;;5063607;28;20032;-43
2023/02/12 05:51:05;;;;;;;20.88;14.55;;;8.10;99.90;;;;;;5062178;28;20383;-42
2023/02/12 05:53:31;;;;;;;19.35;15.18;;;8.10;99.90;;;;;;5059825;28;20373;-42
2023/02/12 05:56:14;;;;;;;20.42;15.80;;;8.10;99.90;;;;;;5062700;28;20040;-42
2023/02/12 05:58:41;;;;;;;;;;;8.10;99.90;;;;;;5059177;28;20036;-42
2023/02/12 06:01:16;;;;;;;19.75;14.00;;;8.10;99.90;;;;;;5062542;28;19908;-43
2023/02/12 06:03:42;;;;;;;18.75;15.18;;;8.00;99.90;;;;;;5062647;28;20085;-42
2023/02/12 06:06:08;;;;;;;19.58;15.35;;;8.00;99.90;;;;;;5061869;28;20020;-43
2023/02/12 06:08:34;;;;;;;18.92;15.18;;;8.00;99.90;;;;;;5062474;28;20040;-43
2023/02/12 06:11:01;;;;;;;18.98;14.35;;;8.00;99.90;;;;;;5062801;28;20025;-42
2023/02/12 06:13:27;;;;;;;17.73;14.75;;;8.00;99.90;;;;;;5061835;28;20033;-42
2023/02/12 06:15:52;;;;;;;20.83;15.85;;;8.10;99.90;;;;;;5061902;28;20926;-42
2023/02/12 06:18:18;;;;;;;20.95;15.38;;;8.00;99.90;;;;;;5061661;28;20017;-42
2023/02/12 06:20:44;;;;;;;19.23;14.90;;;8.10;99.90;;;;;;5061827;28;20490;-43
2023/02/12 06:23:15;;;;;;;18.98;15.18;;;8.10;99.90;;;;;;5061236;28;20016;-43
2023/02/12 06:25:41;;;;;;;19.08;14.82;;;8.00;99.90;;;;;;5061989;28;20028;-43
2023/02/12 06:28:06;;;;;;;18.58;14.73;;;8.10;99.90;;;;;;5060888;28;20052;-42
2023/02/12 06:30:35;;;;;;;19.45;15.20;;;8.10;99.90;;;;;;5061938;28;20035;-42
2023/02/12 06:33:00;;;;;;;17.23;14.65;;;8.10;99.90;;;;;;5061928;28;20077;-42
2023/02/12 06:35:26;;;;;;;17.08;14.35;;;8.10;99.90;;;;;;5060908;28;20505;-42
2023/02/12 06:37:52;;;;;;;18.38;15.02;;;8.10;99.90;;;;;;5061659;28;20059;-43
2023/02/12 06:40:18;;;;;;;18.30;15.35;;;8.10;99.90;;;;;;5061215;28;20830;-43
2023/02/12 06:42:46;;;;;;;22.42;16.38;;;8.10;99.90;;;;;;5062162;28;20085;-42
2023/02/12 06:45:12;;;;;;;19.10;15.45;;;8.10;99.90;;;;;;5058092;28;20020;-44
2023/02/12 06:47:37;;;;;;;19.30;15.52;;;8.10;99.90;;;;;;5060845;28;20085;-43
2023/02/12 06:50:06;;;;;;;18.85;15.45;;;8.10;99.90;;;;;;5061279;28;20090;-42
2023/02/12 06:52:35;;;;;;;20.63;15.80;;;8.10;99.90;;;;;;5061088;28;20563;-43
2023/02/12 06:55:00;;;;;;;18.73;15.07;;;8.10;99.90;;;;;;5060158;28;20037;-43
2023/02/12 06:57:27;;;;;;;17.67;14.57;;;8.10;99.90;;;;;;5062074;28;20039;-43
2023/02/12 06:59:52;;;;;;;17.23;14.20;;;8.10;99.90;;;;;;5060799;28;20070;-44
2023/02/12 07:02:18;;;;;;;17.83;13.57;;;8.10;99.90;;;;;;5060438;28;20194;-42
2023/02/12 07:04:43;;;;;;;18.65;14.25;;;8.10;99.90;;;;;;5061437;28;20032;-42
2023/02/12 07:07:09;;;;;;;18.30;14.15;;;8.10;99.90;;;;;;5060944;28;20134;-43
2023/02/12 07:09:34;;;;;;;20.42;15.77;;;8.10;99.90;;;;;;5060086;28;20024;-42
2023/02/12 07:12:00;;;;;;;17.63;14.45;;;8.10;99.90;;;;;;5060581;28;20114;-43
2023/02/12 07:14:27;;;;;;;19.83;15.27;;;8.10;99.90;;;;;;5060466;28;20048;-42
2023/02/12 07:16:53;;;;;;;20.10;14.88;;;8.10;99.90;;;;;;5060144;28;20109;-42
2023/02/12 07:19:19;;;;;;;23.35;16.23;;;8.10;99.90;;;;;;5061227;28;20028;-42
2023/02/12 07:21:45;;;;;;;18.98;15.60;;;8.10;99.90;;;;;;5061409;28;20032;-44
2023/02/12 07:24:12;;;;;;;23.20;15.65;;;8.10;99.90;;;;;;5059962;28;20810;-43
2023/02/12 07:26:38;;;;;;;22.13;16.35;;;8.10;99.90;;;;;;5060727;28;20028;-43
2023/02/12 07:29:04;;;;;;;22.67;16.83;;;8.20;99.90;;;;;;5061200;28;20029;-42
2023/02/12 07:31:29;;;;;;;23.83;16.77;;;8.20;99.90;;;;;;5059807;28;20032;-42
2023/02/12 07:33:57;;;;;;;21.95;16.25;;;8.20;99.90;;;;;;5060077;28;20031;-44
2023/02/12 07:36:24;;;;;;;20.52;15.70;;;8.20;99.90;;;;;;5060022;28;20036;-43
2023/02/12 07:38:50;;;;;;;23.80;15.90;;;8.20;99.90;;;;;;5059922;28;20494;-43
2023/02/12 07:41:21;;;;;;;20.40;15.43;;;8.20;99.90;;;;;;5060853;28;20108;-43
2023/02/12 07:43:58;;;;;;;24.08;17.33;;;8.20;99.90;;;;;;5060933;28;20023;-43
2023/02/12 07:46:29;;;;;;;19.38;15.35;;;8.20;99.90;;;;;;5060511;28;20066;-43
2023/02/12 07:48:57;;;;;;;22.15;16.25;;;8.20;99.90;;;;;;5060241;28;20044;-43
2023/02/12 07:51:23;;;;;;;23.33;16.98;;;8.30;99.90;;;;;;5059085;28;20036;-42
2023/02/12 07:53:52;;;;;;;20.15;15.07;;;8.30;99.90;;;;;;5060585;28;20090;-43
2023/02/12 07:56:21;;;;;;;21.40;16.48;;;8.30;99.90;;;;;;5060099;28;20036;-43
2023/02/12 07:58:51;;;;;;;19.40;15.90;;;8.40;99.90;;;;;;5059519;28;20033;-42
2023/02/12 08:01:26;;;;;;;20.60;15.40;;;8.40;99.90;;;;;;5060000;28;20056;-43
2023/02/12 08:03:52;;;;;;;18.70;14.90;;;8.40;99.90;;;;;;5060329;28;20060;-43
2023/02/12 08:06:21;;;;;;;18.80;15.57;;;8.40;99.90;;;;;;5060525;28;20112;-43
2023/02/12 08:08:49;;;;;;;20.60;15.98;;;8.40;99.90;;;;;;5060861;28;20135;-42
2023/02/12 08:11:15;;;;;;;18.42;15.25;;;8.50;99.90;;;;;;5059604;28;20071;-43
2023/02/12 08:13:41;;;;;;;17.80;15.23;;;8.50;99.90;;;;;;5059365;28;20640;-42
2023/02/12 08:16:12;;;;;;;19.70;16.77;;;8.50;99.90;;;;;;5059199;28;20032;-43
2023/02/12 08:18:42;;;;;;;19.65;15.50;;;8.50;99.90;;;;;;5058742;28;20036;-42
2023/02/12 08:21:13;;;;;;;23.73;16.55;;;8.60;99.90;;;;;;5059675;28;20411;-43
2023/02/12 08:23:39;;;;;;;21.35;16.73;;;8.60;99.90;;;;;;5059382;28;20031;-43
2023/02/12 08:26:25;;;;;;;19.75;15.93;;;8.60;99.90;;;;;;5058811;28;20024;-43
2023/02/12 08:29:18;;;;;;;19.27;15.85;;;8.70;99.90;;;;;;5057550;28;20499;-43
2023/02/12 08:31:46;;;;;;;19.20;14.95;;;8.70;99.90;;;;;;5056552;28;20045;-43
2023/02/12 08:34:15;;;;;;;21.00;16.52;;;8.70;99.90;;;;;;5058646;28;20020;-44
2023/02/12 08:36:43;;;;;;;21.27;16.60;;;8.70;99.90;;;;;;5059388;28;20032;-43
2023/02/12 08:39:09;;;;;;;21.38;17.48;;;8.70;99.90;;;;;;5059519;28;20082;-44
2023/02/12 08:41:36;;;;;;;21.63;17.35;;;8.70;99.90;;;;;;5057157;28;20016;-44
2023/02/12 08:44:03;;;;;;;21.10;16.27;;;8.80;99.90;;;;;;5061342;28;20100;-43
2023/02/12 08:46:32;;;;;;;23.23;16.80;;;8.80;99.90;;;;;;5059893;28;20027;-43
2023/02/12 08:49:13;;;;;;;21.27;17.45;;;8.80;99.90;;;;;;5056877;28;20032;-44
2023/02/12 08:51:47;;;;;;;19.98;16.38;;;8.90;99.90;;;;;;5058585;28;20051;-43
2023/02/12 08:54:17;;;;;;;19.98;16.77;;;8.90;99.90;;;;;;5059014;28;20021;-43
2023/02/12 08:56:45;;;;;;;19.83;16.08;;;8.90;99.90;;;;;;5059219;28;20033;-43
2023/02/12 08:59:12;;;;;;;19.20;15.90;;;8.90;99.90;;;;;;5058801;28;20474;-44
2023/02/12 09:01:40;;;;;;;18.67;16.23;;;8.90;99.90;;;;;;5058010;28;20423;-43
2023/02/12 09:04:07;;;;;;;19.83;15.73;;;8.90;99.90;;;;;;5058818;28;20028;-41
2023/02/12 09:06:34;;;;;;;21.10;16.42;;;9.00;99.90;;;;;;5058953;28;20813;-43
2023/02/12 09:09:00;;;;;;;22.27;16.67;;;9.00;99.90;;;;;;5056850;28;20035;-43
2023/02/12 09:11:30;;;;;;;18.80;15.65;;;9.00;99.90;;;;;;5059193;28;20036;-43
2023/02/12 09:13:58;;;;;;;22.13;17.40;;;9.00;99.90;;;;;;5058205;28;20052;-44
2023/02/12 09:16:24;;;;;;;24.08;17.95;;;9.00;99.90;;;;;;5058894;28;20052;-44
2023/02/12 09:18:50;;;;;;;22.15;17.20;;;9.10;99.90;;;;;;5058553;28;20016;-44
2023/02/12 09:21:15;;;;;;;18.98;15.63;;;9.10;99.90;;;;;;5059387;28;20395;-43
2023/02/12 09:23:42;;;;;;;21.23;17.25;;;9.10;99.90;;;;;;5058173;28;20020;-42
2023/02/12 09:26:10;;;;;;;20.20;16.83;;;9.10;99.90;;;;;;5058673;28;20032;-44
2023/02/12 09:28:37;;;;;;;20.00;16.35;;;9.10;99.90;;;;;;5058981;28;20462;-43
2023/02/12 09:31:11;;;;;;;20.40;16.08;;;9.20;99.90;;;;;;5058239;28;20055;-43
2023/02/12 09:33:37;;;;;;;19.25;16.38;;;9.10;99.90;;;;;;5058442;28;20616;-43
2023/02/12 09:36:06;;;;;;;21.30;16.63;;;9.20;99.90;;;;;;5058336;28;20056;-43
2023/02/12 09:38:32;;;;;;;22.20;16.92;;;9.20;99.90;;;;;;5058524;28;20024;-44
2023/02/12 09:41:42;;;;;;;22.40;17.67;;;9.20;99.90;;;;;;5055615;28;20028;-43
2023/02/12 09:44:23;;;;;;;22.60;17.65;;;9.20;99.90;;;;;;5042407;28;20308;-43
2023/02/12 09:47:01;;;;;;;21.70;17.73;;;9.20;99.90;;;;;;5048091;28;20052;-43
2023/02/12 09:50:04;;;;;;;20.73;17.27;;;9.20;99.90;;;;;;5058283;28;20040;-43
2023/02/12 09:52:30;;;;;;;22.23;17.70;;;9.20;99.90;;;;;;5059045;28;20524;-42
2023/02/12 09:54:56;;;;;;;20.85;16.63;;;9.20;99.90;;;;;;5057723;28;20043;-43
2023/02/12 09:57:29;;;;;;;24.50;18.13;;;9.30;99.90;;;;;;5057586;28;20036;-43
2023/02/12 10:00:20;;;;;;;23.65;18.60;;;9.30;99.90;;;;;;5057508;28;20098;-43
2023/02/12 10:02:50;;;;;;;22.98;19.02;;;9.30;99.90;;;;;;5057602;28;20048;-44
2023/02/12 10:05:34;;;;;;;25.70;19.30;;;9.30;99.90;;;;;;5057034;28;20036;-43
2023/02/12 10:08:03;;;;;;;22.58;18.60;;;9.30;99.90;;;;;;5058610;28;20037;-43
2023/02/12 10:10:50;;;;;;;27.45;19.52;;;9.40;99.90;;;;;;5057757;28;20036;-44
2023/02/12 10:13:37;;;;;;;26.63;19.65;;;9.30;99.90;;;;;;5057264;28;20070;-42
2023/02/12 10:16:35;;;;;;;24.02;17.92;;;9.40;99.90;;;;;;5057083;28;20044;-43
2023/02/12 10:19:04;;;;;;;25.10;19.00;;;9.40;99.90;;;;;;5057198;28;20032;-43
2023/02/12 10:22:00;;;;;;;23.45;19.08;;;9.50;99.90;;;;;;5061109;28;20667;-43
2023/02/12 10:24:48;;;;;;;24.88;18.80;;;9.50;99.90;;;;;;5042478;28;20091;-43
2023/02/12 10:27:19;;;;;;;22.70;18.20;;;9.50;99.90;;;;;;5059873;28;20249;-43
2023/02/12 10:29:47;;;;;;;27.10;19.20;;;9.50;99.90;;;;;;5061412;28;20545;-44
2023/02/12 10:32:20;;;;;;;25.05;19.55;;;9.50;99.90;;;;;;5061550;28;20039;-44
2023/02/12 10:34:48;;;;;;;24.80;19.15;;;9.50;99.90;;;;;;5061646;28;20047;-45
2023/02/12 10:37:46;;;;;;;26.85;20.25;;;9.60;99.90;;;;;;5061615;28;20697;-43
2023/02/12 10:40:32;;;;;;;25.27;19.67;;;9.60;99.90;;;;;;5028788;28;20121;-43
2023/02/12 10:43:01;;;;;;;22.70;18.15;;;9.60;99.90;;;;;;5061911;28;20035;-43
2023/02/12 10:45:33;;;;;;;24.35;18.30;;;9.60;99.90;;;;;;5062974;28;20121;-43
2023/02/12 10:48:21;;;;;;;23.88;18.35;;;9.70;99.90;;;;;;5060498;28;20029;-44
2023/02/12 10:50:50;;;;;;;25.52;18.60;;;9.70;99.90;;;;;;5060241;28;20028;-42
2023/02/12 10:53:38;;;;;;;23.23;18.08;;;9.70;99.90;;;;;;5061275;28;20032;-43
2023/02/12 10:56:24;;;;;;;22.42;18.15;;;9.80;99.90;;;;;;5061655;28;20133;-44
2023/02/12 10:58:53;;;;;;;21.00;16.80;;;9.80;99.90;;;;;;5060942;28;20048;-42
2023/02/12 11:01:34;;;;;;;22.20;16.83;;;9.80;99.90;;;;;;5061142;28;20036;-44
2023/02/12 11:04:18;;;;;;;24.05;17.42;;;9.80;99.90;;;;;;5059543;28;20032;-44
2023/02/12 11:07:04;;;;;;;21.85;16.90;;;9.80;99.90;;;;;;5059609;28;20040;-43
2023/02/12 11:09:44;;;;;;;20.83;16.85;;;9.90;99.90;;;;;;5050075;28;20518;-44
2023/02/12 11:12:46;;;;;;;24.50;17.23;;;9.90;99.90;;;;;;5061389;28;20020;-43
2023/02/12 11:15:23;;;;;;;20.67;16.42;;;9.90;99.90;;;;;;5047522;28;20119;-43
2023/02/12 11:18:01;;;;;;;22.13;16.85;;;9.90;99.90;;;;;;5049964;28;20036;-43
2023/02/12 11:20:51;;;;;;;21.88;16.63;;;10.00;99.90;;;;;;5060951;28;20069;-44
2023/02/12 11:23:24;;;;;;;21.67;15.55;;;10.00;99.90;;;;;;5060651;28;20454;-43
2023/02/12 11:25:57;;;;;;;21.35;15.88;;;10.00;99.90;;;;;;5060569;28;20087;-43
2023/02/12 11:28:23;;;;;;;21.65;16.02;;;10.00;99.90;;;;;;5060783;28;20109;-44
2023/02/12 11:30:54;;;;;;;24.77;17.05;;;10.00;99.90;;;;;;5059477;28;20020;-44
2023/02/12 11:33:22;;;;;;;20.45;14.63;;;10.00;99.90;;;;;;5060351;28;20032;-43
2023/02/12 11:36:04;;;;;;;19.05;14.25;;;10.10;99.90;;;;;;5059757;28;20127;-44
2023/02/12 11:38:36;;;;;;;18.95;14.85;;;10.00;99.90;;;;;;5060889;28;20024;-45
2023/02/12 11:41:20;;;;;;;19.25;13.43;;;10.00;99.90;;;;;;5060756;28;20036;-44
2023/02/12 11:43:45;;;;;;;18.42;14.02;;;10.00;99.90;;;;;;5059589;28;20845;-44
2023/02/12 11:46:23;;;;;;;16.05;13.13;;;10.00;99.90;;;;;;5060229;28;20024;-43
2023/02/12 11:48:49;;;;;;;17.30;12.75;;;10.10;99.90;;;;;;5058627;28;20504;-44
2023/02/12 11:51:28;;;;;;;18.17;14.20;;;10.10;99.90;;;;;;5059306;28;20559;-45
2023/02/12 11:53:56;;;;;;;19.40;15.20;;;10.10;99.90;;;;;;5059924;28;20031;-43
2023/02/12 11:56:22;;;;;;;16.63;13.38;;;10.10;99.90;;;;;;5060471;28;20090;-43
2023/02/12 11:58:49;;;;;;;17.02;13.18;;;10.10;99.90;;;;;;5058942;28;20024;-44
2023/02/12 12:01:27;;;;;;;17.20;13.20;;;10.20;99.90;;;;;;5060290;28;20117;-44
2023/02/12 12:04:04;;;;;;;18.75;13.65;;;10.20;99.90;;;;;;5058672;28;20032;-44
2023/02/12 12:06:42;;;;;;;18.33;13.77;;;10.20;99.90;;;;;;5050570;28;20029;-44
2023/02/12 12:09:40;;;;;;;16.88;12.80;;;10.30;99.90;;;;;;5060153;28;20024;-44
2023/02/12 12:12:36;;;;;;;17.10;12.48;;;10.30;99.90;;;;;;5059205;28;20040;-43
2023/02/12 12:21:27;;;;;;;18.63;12.37;;;10.40;99.90;;;;;;5038880;28;20123;-44
2023/02/12 12:23:58;;;;;;;15.98;11.70;;;10.50;99.90;;;;;;5058993;28;20043;-44
2023/02/12 12:26:27;;;;;;;14.00;10.98;;;10.50;99.90;;;;;;5058733;28;20108;-43
2023/02/12 12:29:12;;;;;;;16.52;12.75;;;10.60;99.90;;;;;;5059694;28;20036;-45
2023/02/12 12:31:44;;;;;;;17.05;13.65;;;10.50;99.90;;;;;;5057722;28;20082;-44
2023/02/12 12:34:22;;;;;;;18.92;13.27;;;10.50;99.90;;;;;;5058647;28;20048;-44
2023/02/12 12:37:15;;;;;;;19.38;14.10;;;10.50;99.90;;;;;;5057859;28;20123;-43
2023/02/12 12:39:41;;;;;;;;;;;10.60;99.90;;;;;;5059307;28;20106;-44
2023/02/12 12:42:21;;;;;;;18.25;12.85;;;10.60;99.90;;;;;;5059480;28;20022;-44
2023/02/12 12:45:17;;;;;;;16.52;13.38;;;10.60;99.90;;;;;;5060257;28;20191;-44
2023/02/12 12:48:17;;;;;;;16.95;12.68;;;10.50;99.90;;;;;;5048284;28;20032;-43
2023/02/12 12:51:03;;;;;;;18.50;13.32;;;10.50;99.90;;;;;;5058939;28;20039;-45
2023/02/12 12:53:53;;;;;;;17.27;13.02;;;10.50;99.90;;;;;;5059577;28;20104;-44
2023/02/12 12:56:43;;;;;;;16.25;13.07;;;10.50;99.90;;;;;;5059607;28;20032;-43
2023/02/12 12:59:12;;;;;;;15.30;12.55;;;10.50;99.90;;;;;;5059403;28;20040;-45
2023/02/12 13:01:55;;;;;;;15.73;12.25;;;10.50;99.90;;;;;;5057665;28;20078;-44
2023/02/12 13:04:24;;;;;;;18.17;13.00;;;10.60;99.90;;;;;;5059462;28;20527;-44
2023/02/12 13:07:11;;;;;;;17.80;12.65;;;10.60;99.90;;;;;;5058514;28;20082;-44
2023/02/12 13:10:07;;;;;;;16.67;12.23;;;10.60;99.90;;;;;;5058675;28;20533;-43
2023/02/12 13:12:54;;;;;;;16.58;12.95;;;10.70;99.90;;;;;;5058445;28;20036;-44
2023/02/12 13:15:44;;;;;;;15.05;12.18;;;10.70;99.90;;;;;;5059108;28;20032;-44
2023/02/12 13:18:39;;;;;;;17.92;11.93;;;10.70;99.90;;;;;;5057544;28;20024;-44